sensor_id;sensor_type;location;lat;lon;timestamp;pressure;altitude;pressure_sealevel;temperature;humidity
33288;BME280;19657;50.452;30.372;2024-01-27T00:00:56;140319.53;;;-8.08;100.00
33288;BME280;19657;50.452;30.372;2024-01-27T00:03:42;140326.17;;;-8.05;100.00
33288;BME280;19657;50.452;30.372;2024-01-27T00:06:28;140312.36;;;-8.11;100.00
33288;BME280;19657;50.452;30.372;2024-01-27T00:09:15;140321.97;;;-8.07;100.00
33288;BME280;19657;50.452;30.372;2024-01-27T00:12:01;140318.53;;;-8.09;100.00
33288;BME280;19657;50.452;30.372;2024-01-27T00:14:47;140316.30;;;-8.10;100.00
33288;BME280;19657;50.452;30.372;2024-01-27T00:17:34;140291.39;;;-8.20;100.00
33288;BME280;19657;50.452;30.372;2024-01-27T00:20:21;140284.00;;;-8.23;100.00
33288;BME280;19657;50.452;30.372;2024-01-27T00:23:07;140271.67;;;-8.28;100.00
33288;BME280;19657;50.452;30.372;2024-01-27T00:25:54;140267.72;;;-8.30;100.00
33288;BME280;19657;50.452;30.372;2024-01-27T00:28:40;140280.80;;;-8.24;100.00
33288;BME280;19657;50.452;30.372;2024-01-27T00:31:26;140295.34;;;-8.18;100.00
33288;BME280;19657;50.452;30.372;2024-01-27T00:34:12;140289.67;;;-8.20;100.00
33288;BME280;19657;50.452;30.372;2024-01-27T00:36:58;140299.53;;;-8.16;100.00
33288;BME280;19657;50.452;30.372;2024-01-27T00:39:44;140298.78;;;-8.17;100.00
33288;BME280;19657;50.452;30.372;2024-01-27T00:42:31;140319.03;;;-8.09;100.00
33288;BME280;19657;50.452;30.372;2024-01-27T00:45:17;140334.55;;;-8.02;100.00
33288;BME280;19657;50.452;30.372;2024-01-27T00:48:03;140324.47;;;-8.06;100.00
33288;BME280;19657;50.452;30.372;2024-01-27T00:50:49;140315.81;;;-8.10;100.00
33288;BME280;19657;50.452;30.372;2024-01-27T00:53:36;140318.53;;;-8.09;100.00
33288;BME280;19657;50.452;30.372;2024-01-27T00:56:21;140313.11;;;-8.11;100.00
33288;BME280;19657;50.452;30.372;2024-01-27T00:59:07;140313.59;;;-8.11;100.00
33288;BME280;19657;50.452;30.372;2024-01-27T01:01:53;140305.70;;;-8.14;100.00
33288;BME280;19657;50.452;30.372;2024-01-27T01:04:40;140300.28;;;-8.16;100.00
33288;BME280;19657;50.452;30.372;2024-01-27T01:07:27;140295.59;;;-8.18;100.00
33288;BME280;19657;50.452;30.372;2024-01-27T01:10:13;140285.22;;;-8.22;100.00
33288;BME280;19657;50.452;30.372;2024-01-27T01:12:59;140279.08;;;-8.25;100.00
33288;BME280;19657;50.452;30.372;2024-01-27T01:15:45;140278.56;;;-8.25;100.00
33288;BME280;19657;50.452;30.372;2024-01-27T01:18:31;140262.05;;;-8.32;100.00
33288;BME280;19657;50.452;30.372;2024-01-27T01:21:18;140262.78;;;-8.32;100.00
33288;BME280;19657;50.452;30.372;2024-01-27T01:24:04;140273.88;;;-8.27;100.00
33288;BME280;19657;50.452;30.372;2024-01-27T01:26:50;140281.78;;;-8.24;100.00
33288;BME280;19657;50.452;30.372;2024-01-27T01:29:36;140268.47;;;-8.29;100.00
33288;BME280;19657;50.452;30.372;2024-01-27T01:32:23;140276.59;;;-8.26;100.00
33288;BME280;19657;50.452;30.372;2024-01-27T01:35:10;140269.44;;;-8.29;100.00
33288;BME280;19657;50.452;30.372;2024-01-27T01:37:56;140260.56;;;-8.33;100.00
33288;BME280;19657;50.452;30.372;2024-01-27T01:40:42;140246.53;;;-8.38;100.00
33288;BME280;19657;50.452;30.372;2024-01-27T01:43:28;140236.95;;;-8.42;100.00
33288;BME280;19657;50.452;30.372;2024-01-27T01:46:14;140237.16;;;-8.42;100.00
33288;BME280;19657;50.452;30.372;2024-01-27T01:49:00;140238.16;;;-8.42;100.00
33288;BME280;19657;50.452;30.372;2024-01-27T01:51:47;140234.97;;;-8.43;100.00
33288;BME280;19657;50.452;30.372;2024-01-27T01:54:34;140233.48;;;-8.44;100.00
33288;BME280;19657;50.452;30.372;2024-01-27T01:57:20;140250.45;;;-8.37;100.00
33288;BME280;19657;50.452;30.372;2024-01-27T02:00:07;140247.50;;;-8.38;100.00
33288;BME280;19657;50.452;30.372;2024-01-27T02:02:59;140243.34;;;-8.40;100.00
33288;BME280;19657;50.452;30.372;2024-01-27T02:05:46;140244.81;;;-8.39;100.00
33288;BME280;19657;50.452;30.372;2024-01-27T02:08:33;140244.08;;;-8.39;100.00
33288;BME280;19657;50.452;30.372;2024-01-27T02:11:18;140239.66;;;-8.41;100.00
33288;BME280;19657;50.452;30.372;2024-01-27T02:14:06;140230.77;;;-8.45;100.00
33288;BME280;19657;50.452;30.372;2024-01-27T02:16:52;140208.34;;;-8.55;100.00
33288;BME280;19657;50.452;30.372;2024-01-27T02:19:38;140195.50;;;-8.60;100.00
33288;BME280;19657;50.452;30.372;2024-01-27T02:22:25;140192.05;;;-8.61;100.00
33288;BME280;19657;50.452;30.372;2024-01-27T02:25:11;140196.75;;;-8.59;100.00
33288;BME280;19657;50.452;30.372;2024-01-27T02:27:57;140197.22;;;-8.59;100.00
33288;BME280;19657;50.452;30.372;2024-01-27T02:30:44;140191.55;;;-8.61;100.00
33288;BME280;19657;50.452;30.372;2024-01-27T02:33:30;140187.84;;;-8.63;100.00
33288;BME280;19657;50.452;30.372;2024-01-27T02:36:16;140181.95;;;-8.65;100.00
33288;BME280;19657;50.452;30.372;2024-01-27T02:39:02;140190.58;;;-8.62;100.00
33288;BME280;19657;50.452;30.372;2024-01-27T02:41:48;140195.25;;;-8.60;100.00
33288;BME280;19657;50.452;30.372;2024-01-27T02:44:34;140192.55;;;-8.61;100.00
33288;BME280;19657;50.452;30.372;2024-01-27T02:47:20;140181.70;;;-8.65;100.00
33288;BME280;19657;50.452;30.372;2024-01-27T02:50:06;140174.80;;;-8.68;100.00
33288;BME280;19657;50.452;30.372;2024-01-27T02:52:53;140173.31;;;-8.69;100.00
33288;BME280;19657;50.452;30.372;2024-01-27T02:55:39;140181.45;;;-8.66;100.00
33288;BME280;19657;50.452;30.372;2024-01-27T02:58:25;140194.03;;;-8.60;100.00
33288;BME280;19657;50.452;30.372;2024-01-27T03:01:11;140203.88;;;-8.56;100.00
33288;BME280;19657;50.452;30.372;2024-01-27T03:03:57;140219.42;;;-8.49;100.00
33288;BME280;19657;50.452;30.372;2024-01-27T03:06:43;140205.86;;;-8.56;100.00
33288;BME280;19657;50.452;30.372;2024-01-27T03:09:29;140197.97;;;-8.59;100.00
33288;BME280;19657;50.452;30.372;2024-01-27T03:12:15;140194.05;;;-8.60;100.00
33288;BME280;19657;50.452;30.372;2024-01-27T03:15:01;140192.05;;;-8.61;100.00
33288;BME280;19657;50.452;30.372;2024-01-27T03:17:48;140189.09;;;-8.62;100.00
33288;BME280;19657;50.452;30.372;2024-01-27T03:20:34;140182.44;;;-8.65;100.00
33288;BME280;19657;50.452;30.372;2024-01-27T03:23:20;140178.00;;;-8.67;100.00
33288;BME280;19657;50.452;30.372;2024-01-27T03:26:06;140169.38;;;-8.70;100.00
33288;BME280;19657;50.452;30.372;2024-01-27T03:28:53;140164.92;;;-8.72;100.00
33288;BME280;19657;50.452;30.372;2024-01-27T03:31:38;140174.80;;;-8.68;100.00
33288;BME280;19657;50.452;30.372;2024-01-27T03:34:25;140197.47;;;-8.59;100.00
33288;BME280;19657;50.452;30.372;2024-01-27T03:37:13;140201.42;;;-8.57;100.00
33288;BME280;19657;50.452;30.372;2024-01-27T03:39:59;140220.41;;;-8.49;100.00
33288;BME280;19657;50.452;30.372;2024-01-27T03:42:45;140228.05;;;-8.46;100.00
33288;BME280;19657;50.452;30.372;2024-01-27T03:45:31;140220.66;;;-8.49;100.00
33288;BME280;19657;50.452;30.372;2024-01-27T03:48:18;140217.45;;;-8.50;100.00
33288;BME280;19657;50.452;30.372;2024-01-27T03:51:04;140223.86;;;-8.47;100.00
33288;BME280;19657;50.452;30.372;2024-01-27T03:53:51;140239.64;;;-8.41;100.00
33288;BME280;19657;50.452;30.372;2024-01-27T03:56:37;140236.19;;;-8.43;100.00
33288;BME280;19657;50.452;30.372;2024-01-27T03:59:23;140240.41;;;-8.41;100.00
33288;BME280;19657;50.452;30.372;2024-01-27T04:02:09;140249.97;;;-8.37;100.00
33288;BME280;19657;50.452;30.372;2024-01-27T04:04:55;140259.58;;;-8.33;100.00
33288;BME280;19657;50.452;30.372;2024-01-27T04:07:41;140255.63;;;-8.35;100.00
33288;BME280;19657;50.452;30.372;2024-01-27T04:10:27;140259.81;;;-8.33;100.00
33288;BME280;19657;50.452;30.372;2024-01-27T04:13:13;140261.53;;;-8.32;100.00
33288;BME280;19657;50.452;30.372;2024-01-27T04:15:59;140271.42;;;-8.28;100.00
33288;BME280;19657;50.452;30.372;2024-01-27T04:18:47;140269.45;;;-8.29;100.00
33288;BME280;19657;50.452;30.372;2024-01-27T04:21:34;140279.08;;;-8.25;100.00
33288;BME280;19657;50.452;30.372;2024-01-27T04:24:19;140277.08;;;-8.26;100.00
33288;BME280;19657;50.452;30.372;2024-01-27T04:27:06;140268.45;;;-8.29;100.00
33288;BME280;19657;50.452;30.372;2024-01-27T04:29:52;140264.52;;;-8.31;100.00
33288;BME280;19657;50.452;30.372;2024-01-27T04:32:39;140276.11;;;-8.26;100.00
33288;BME280;19657;50.452;30.372;2024-01-27T04:35:25;140281.30;;;-8.24;100.00
33288;BME280;19657;50.452;30.372;2024-01-27T04:38:11;140274.63;;;-8.27;100.00
33288;BME280;19657;50.452;30.372;2024-01-27T04:40:57;140264.25;;;-8.31;100.00
33288;BME280;19657;50.452;30.372;2024-01-27T04:43:43;140253.91;;;-8.35;100.00
33288;BME280;19657;50.452;30.372;2024-01-27T04:46:29;140262.28;;;-8.32;100.00
33288;BME280;19657;50.452;30.372;2024-01-27T04:49:15;140270.44;;;-8.28;100.00
33288;BME280;19657;50.452;30.372;2024-01-27T04:52:02;140265.00;;;-8.31;100.00
33288;BME280;19657;50.452;30.372;2024-01-27T04:54:48;140252.67;;;-8.36;100.00
33288;BME280;19657;50.452;30.372;2024-01-27T04:57:34;140233.72;;;-8.43;100.00
33288;BME280;19657;50.452;30.372;2024-01-27T05:00:21;140234.70;;;-8.43;100.00
33288;BME280;19657;50.452;30.372;2024-01-27T05:03:07;140235.95;;;-8.43;100.00
33288;BME280;19657;50.452;30.372;2024-01-27T05:05:59;140234.22;;;-8.43;100.00
33288;BME280;19657;50.452;30.372;2024-01-27T05:08:46;140243.34;;;-8.40;100.00
33288;BME280;19657;50.452;30.372;2024-01-27T05:11:32;140248.22;;;-8.38;100.00
33288;BME280;19657;50.452;30.372;2024-01-27T05:14:18;140249.97;;;-8.37;100.00
33288;BME280;19657;50.452;30.372;2024-01-27T05:17:05;140240.38;;;-8.41;100.00
33288;BME280;19657;50.452;30.372;2024-01-27T05:19:51;140235.20;;;-8.43;100.00
33288;BME280;19657;50.452;30.372;2024-01-27T05:22:37;140230.27;;;-8.45;100.00
33288;BME280;19657;50.452;30.372;2024-01-27T05:25:23;140238.66;;;-8.42;100.00
33288;BME280;19657;50.452;30.372;2024-01-27T05:28:09;140254.64;;;-8.35;100.00
33288;BME280;19657;50.452;30.372;2024-01-27T05:30:55;140242.09;;;-8.40;100.00
33288;BME280;19657;50.452;30.372;2024-01-27T05:33:42;140243.58;;;-8.40;100.00
33288;BME280;19657;50.452;30.372;2024-01-27T05:36:29;140262.30;;;-8.32;100.00
33288;BME280;19657;50.452;30.372;2024-01-27T05:39:15;140269.92;;;-8.29;100.00
33288;BME280;19657;50.452;30.372;2024-01-27T05:42:01;140280.78;;;-8.24;100.00
33288;BME280;19657;50.452;30.372;2024-01-27T05:44:47;140295.34;;;-8.18;100.00
33288;BME280;19657;50.452;30.372;2024-01-27T05:47:33;140285.47;;;-8.22;100.00
33288;BME280;19657;50.452;30.372;2024-01-27T05:50:20;140257.61;;;-8.34;100.00
33288;BME280;19657;50.452;30.372;2024-01-27T05:53:06;140257.84;;;-8.34;100.00
33288;BME280;19657;50.452;30.372;2024-01-27T05:55:52;140259.83;;;-8.33;100.00
33288;BME280;19657;50.452;30.372;2024-01-27T05:58:40;140247.25;;;-8.38;100.00
33288;BME280;19657;50.452;30.372;2024-01-27T06:01:26;140254.41;;;-8.35;100.00
33288;BME280;19657;50.452;30.372;2024-01-27T06:04:12;140249.70;;;-8.37;100.00
33288;BME280;19657;50.452;30.372;2024-01-27T06:06:59;140256.13;;;-8.34;100.00
33288;BME280;19657;50.452;30.372;2024-01-27T06:09:46;140265.50;;;-8.31;100.00
33288;BME280;19657;50.452;30.372;2024-01-27T06:12:32;140278.56;;;-8.25;100.00
33288;BME280;19657;50.452;30.372;2024-01-27T06:15:18;140294.11;;;-8.19;100.00
33288;BME280;19657;50.452;30.372;2024-01-27T06:18:04;140297.58;;;-8.17;100.00
33288;BME280;19657;50.452;30.372;2024-01-27T06:20:51;140300.28;;;-8.16;100.00
33288;BME280;19657;50.452;30.372;2024-01-27T06:23:38;140304.72;;;-8.15;100.00
33288;BME280;19657;50.452;30.372;2024-01-27T06:26:24;140297.56;;;-8.17;100.00
33288;BME280;19657;50.452;30.372;2024-01-27T06:29:10;140307.92;;;-8.13;100.00
33288;BME280;19657;50.452;30.372;2024-01-27T06:31:56;140308.17;;;-8.13;100.00
33288;BME280;19657;50.452;30.372;2024-01-27T06:34:42;140318.28;;;-8.09;100.00
33288;BME280;19657;50.452;30.372;2024-01-27T06:37:28;140326.42;;;-8.05;100.00
33288;BME280;19657;50.452;30.372;2024-01-27T06:40:14;140321.98;;;-8.07;100.00
33288;BME280;19657;50.452;30.372;2024-01-27T06:43:00;140315.34;;;-8.10;100.00
33288;BME280;19657;50.452;30.372;2024-01-27T06:45:49;140327.91;;;-8.05;100.00
33288;BME280;19657;50.452;30.372;2024-01-27T06:48:35;140336.30;;;-8.01;100.00
33288;BME280;19657;50.452;30.372;2024-01-27T06:51:22;140343.92;;;-7.98;100.00
33288;BME280;19657;50.452;30.372;2024-01-27T06:54:07;140350.88;;;-7.95;100.00
33288;BME280;19657;50.452;30.372;2024-01-27T06:56:54;140358.97;;;-7.92;100.00
33288;BME280;19657;50.452;30.372;2024-01-27T06:59:40;140358.00;;;-7.92;100.00
33288;BME280;19657;50.452;30.372;2024-01-27T07:02:26;140345.42;;;-7.97;100.00
33288;BME280;19657;50.452;30.372;2024-01-27T07:05:12;140323.20;;;-8.07;100.00
33288;BME280;19657;50.452;30.372;2024-01-27T07:08:00;140308.17;;;-8.13;100.00
33288;BME280;19657;50.452;30.372;2024-01-27T07:10:47;140304.72;;;-8.14;100.00
33288;BME280;19657;50.452;30.372;2024-01-27T07:13:33;140297.56;;;-8.17;100.00
33288;BME280;19657;50.452;30.372;2024-01-27T07:16:20;140301.00;;;-8.16;100.00
33288;BME280;19657;50.452;30.372;2024-01-27T07:19:06;140297.08;;;-8.18;100.00
33288;BME280;19657;50.452;30.372;2024-01-27T07:21:52;140311.88;;;-8.12;100.00
33288;BME280;19657;50.452;30.372;2024-01-27T07:24:38;140327.16;;;-8.05;100.00
33288;BME280;19657;50.452;30.372;2024-01-27T07:27:25;140333.58;;;-8.02;100.00
33288;BME280;19657;50.452;30.372;2024-01-27T07:30:11;140344.42;;;-7.98;100.00
33288;BME280;19657;50.452;30.372;2024-01-27T07:32:58;140355.78;;;-7.93;100.00
33288;BME280;19657;50.452;30.372;2024-01-27T07:35:44;140366.16;;;-7.89;100.00
33288;BME280;19657;50.452;30.372;2024-01-27T07:38:30;140356.53;;;-7.93;100.00
33288;BME280;19657;50.452;30.372;2024-01-27T07:41:16;140346.16;;;-7.97;100.00
33288;BME280;19657;50.452;30.372;2024-01-27T07:44:10;140356.03;;;-7.93;100.00
33288;BME280;19657;50.452;30.372;2024-01-27T07:46:56;140366.89;;;-7.88;100.00
33288;BME280;19657;50.452;30.372;2024-01-27T07:49:42;140365.91;;;-7.89;100.00
33288;BME280;19657;50.452;30.372;2024-01-27T07:52:29;140352.59;;;-7.94;100.00
33288;BME280;19657;50.452;30.372;2024-01-27T07:55:15;140342.95;;;-7.98;100.00
33288;BME280;19657;50.452;30.372;2024-01-27T07:58:03;140338.27;;;-8.00;100.00
33288;BME280;19657;50.452;30.372;2024-01-27T08:00:48;140328.39;;;-8.04;100.00
33288;BME280;19657;50.452;30.372;2024-01-27T08:03:34;140326.91;;;-8.05;100.00
33288;BME280;19657;50.452;30.372;2024-01-27T08:06:28;140333.33;;;-8.02;100.00
33288;BME280;19657;50.452;30.372;2024-01-27T08:09:17;140338.03;;;-8.00;100.00
33288;BME280;19657;50.452;30.372;2024-01-27T08:12:03;140336.53;;;-8.01;100.00
33288;BME280;19657;50.452;30.372;2024-01-27T08:14:49;140340.97;;;-7.99;100.00
33288;BME280;19657;50.452;30.372;2024-01-27T08:17:35;140346.66;;;-7.97;100.00
33288;BME280;19657;50.452;30.372;2024-01-27T08:20:25;140353.55;;;-7.94;100.00
33288;BME280;19657;50.452;30.372;2024-01-27T08:23:11;140373.31;;;-7.86;100.00
33288;BME280;19657;50.452;30.372;2024-01-27T08:25:57;140394.05;;;-7.77;100.00
33288;BME280;19657;50.452;30.372;2024-01-27T08:28:43;140401.69;;;-7.74;100.00
33288;BME280;19657;50.452;30.372;2024-01-27T08:31:29;140402.92;;;-7.74;100.00
33288;BME280;19657;50.452;30.372;2024-01-27T08:34:15;140390.08;;;-7.79;100.00
33288;BME280;19657;50.452;30.372;2024-01-27T08:37:02;140390.81;;;-7.79;100.00
33288;BME280;19657;50.452;30.372;2024-01-27T08:39:48;140384.17;;;-7.81;100.00
33288;BME280;19657;50.452;30.372;2024-01-27T08:42:36;140394.78;;;-7.77;100.00
33288;BME280;19657;50.452;30.372;2024-01-27T08:45:22;140414.52;;;-7.69;100.00
33288;BME280;19657;50.452;30.372;2024-01-27T08:48:09;140414.53;;;-7.69;100.00
33288;BME280;19657;50.452;30.372;2024-01-27T08:50:57;140414.28;;;-7.69;100.00
33288;BME280;19657;50.452;30.372;2024-01-27T08:53:44;140410.09;;;-7.71;100.00
33288;BME280;19657;50.452;30.372;2024-01-27T08:56:39;140416.00;;;-7.68;100.00
33288;BME280;19657;50.452;30.372;2024-01-27T08:59:25;140404.89;;;-7.73;100.00
33288;BME280;19657;50.452;30.372;2024-01-27T09:02:11;140414.03;;;-7.69;100.00
33288;BME280;19657;50.452;30.372;2024-01-27T09:04:58;140436.25;;;-7.59;100.00
33288;BME280;19657;50.452;30.372;2024-01-27T09:07:45;140471.80;;;-7.45;100.00
33288;BME280;19657;50.452;30.372;2024-01-27T09:10:31;140514.48;;;-7.27;100.00
33288;BME280;19657;50.452;30.372;2024-01-27T09:13:17;140544.61;;;-7.14;100.00
33288;BME280;19657;50.452;30.372;2024-01-27T09:16:03;140558.20;;;-7.09;100.00
33288;BME280;19657;50.452;30.372;2024-01-27T09:18:49;140539.92;;;-7.16;100.00
33288;BME280;19657;50.452;30.372;2024-01-27T09:21:36;140529.05;;;-7.22;100.00
33288;BME280;19657;50.452;30.372;2024-01-27T09:24:23;140512.53;;;-7.28;100.00
33288;BME280;19657;50.452;30.372;2024-01-27T09:27:09;140495.02;;;-7.35;100.00
33288;BME280;19657;50.452;30.372;2024-01-27T09:29:56;140485.09;;;-7.39;100.00
33288;BME280;19657;50.452;30.372;2024-01-27T09:32:42;140480.17;;;-7.42;100.00
33288;BME280;19657;50.452;30.372;2024-01-27T09:35:29;140465.63;;;-7.48;100.00
33288;BME280;19657;50.452;30.372;2024-01-27T09:38:15;140450.56;;;-7.54;100.00
33288;BME280;19657;50.452;30.372;2024-01-27T09:41:01;140439.95;;;-7.58;100.00
33288;BME280;19657;50.452;30.372;2024-01-27T09:43:47;140443.16;;;-7.57;100.00
33288;BME280;19657;50.452;30.372;2024-01-27T09:46:33;140443.89;;;-7.56;100.00
33288;BME280;19657;50.452;30.372;2024-01-27T09:49:20;140427.09;;;-7.64;100.00
33288;BME280;19657;50.452;30.372;2024-01-27T09:52:06;140419.70;;;-7.67;100.00
33288;BME280;19657;50.452;30.372;2024-01-27T09:54:53;140415.75;;;-7.69;100.00
33288;BME280;19657;50.452;30.372;2024-01-27T09:57:39;140421.92;;;-7.66;100.00
33288;BME280;19657;50.452;30.372;2024-01-27T10:00:27;140435.00;;;-7.60;100.00
33288;BME280;19657;50.452;30.372;2024-01-27T10:03:13;140463.14;;;-7.49;100.00
33288;BME280;19657;50.452;30.372;2024-01-27T10:06:00;140483.88;;;-7.40;100.00
33288;BME280;19657;50.452;30.372;2024-01-27T10:08:56;140490.28;;;-7.37;100.00
33288;BME280;19657;50.452;30.372;2024-01-27T10:11:46;140479.19;;;-7.42;100.00
33288;BME280;19657;50.452;30.372;2024-01-27T10:14:40;140474.50;;;-7.44;100.00
33288;BME280;19657;50.452;30.372;2024-01-27T10:17:27;140471.05;;;-7.45;100.00
33288;BME280;19657;50.452;30.372;2024-01-27T10:20:18;140475.22;;;-7.44;100.00
33288;BME280;19657;50.452;30.372;2024-01-27T10:23:12;140469.06;;;-7.46;100.00
33288;BME280;19657;50.452;30.372;2024-01-27T10:25:59;140462.16;;;-7.49;100.00
33288;BME280;19657;50.452;30.372;2024-01-27T10:28:56;140460.92;;;-7.49;100.00
33288;BME280;19657;50.452;30.372;2024-01-27T10:31:42;140465.13;;;-7.48;100.00
33288;BME280;19657;50.452;30.372;2024-01-27T10:34:28;140467.09;;;-7.47;100.00
33288;BME280;19657;50.452;30.372;2024-01-27T10:37:14;140462.88;;;-7.49;100.00
33288;BME280;19657;50.452;30.372;2024-01-27T10:40:05;140459.70;;;-7.50;100.00
33288;BME280;19657;50.452;30.372;2024-01-27T10:43:01;140443.91;;;-7.56;100.00
33288;BME280;19657;50.452;30.372;2024-01-27T10:45:49;140453.77;;;-7.52;100.00
33288;BME280;19657;50.452;30.372;2024-01-27T10:48:35;140466.84;;;-7.47;100.00
33288;BME280;19657;50.452;30.372;2024-01-27T10:51:30;140483.16;;;-7.40;100.00
33288;BME280;19657;50.452;30.372;2024-01-27T10:54:23;140488.08;;;-7.38;100.00
33288;BME280;19657;50.452;30.372;2024-01-27T10:57:10;140502.41;;;-7.32;100.00
33288;BME280;19657;50.452;30.372;2024-01-27T10:59:57;140495.22;;;-7.35;100.00
33288;BME280;19657;50.452;30.372;2024-01-27T11:02:44;140496.95;;;-7.34;100.00
33288;BME280;19657;50.452;30.372;2024-01-27T11:05:35;140509.30;;;-7.29;100.00
33288;BME280;19657;50.452;30.372;2024-01-27T11:08:24;140514.50;;;-7.27;100.00
33288;BME280;19657;50.452;30.372;2024-01-27T11:11:14;140526.33;;;-7.23;100.00
33288;BME280;19657;50.452;30.372;2024-01-27T11:14:01;140526.34;;;-7.23;100.00
33288;BME280;19657;50.452;30.372;2024-01-27T11:16:47;140517.95;;;-7.26;100.00
33288;BME280;19657;50.452;30.372;2024-01-27T11:19:33;140505.34;;;-7.31;100.00
33288;BME280;19657;50.452;30.372;2024-01-27T11:22:25;140507.83;;;-7.30;100.00
33288;BME280;19657;50.452;30.372;2024-01-27T11:28:10;140551.03;;;-7.12;100.00
33288;BME280;19657;50.452;30.372;2024-01-27T11:30:57;140556.47;;;-7.10;100.00
33288;BME280;19657;50.452;30.372;2024-01-27T11:33:44;140553.23;;;-7.11;100.00
33288;BME280;19657;50.452;30.372;2024-01-27T11:36:32;140546.34;;;-7.14;100.00
33288;BME280;19657;50.452;30.372;2024-01-27T11:39:31;140538.67;;;-7.17;100.00
33288;BME280;19657;50.452;30.372;2024-01-27T11:42:17;140548.81;;;-7.13;100.00
33288;BME280;19657;50.452;30.372;2024-01-27T11:45:04;140548.33;;;-7.13;100.00
33288;BME280;19657;50.452;30.372;2024-01-27T11:47:50;140542.39;;;-7.15;100.00
33288;BME280;19657;50.452;30.372;2024-01-27T11:50:37;140544.86;;;-7.14;100.00
33288;BME280;19657;50.452;30.372;2024-01-27T11:53:23;140549.78;;;-7.12;100.00
33288;BME280;19657;50.452;30.372;2024-01-27T11:56:09;140563.63;;;-7.07;100.00
33288;BME280;19657;50.452;30.372;2024-01-27T11:58:55;140579.67;;;-7.00;100.00
33288;BME280;19657;50.452;30.372;2024-01-27T12:01:41;140591.55;;;-6.95;100.00
33288;BME280;19657;50.452;30.372;2024-01-27T12:04:28;140599.22;;;-6.92;100.00
33288;BME280;19657;50.452;30.372;2024-01-27T12:07:15;140590.83;;;-6.95;100.00
33288;BME280;19657;50.452;30.372;2024-01-27T12:10:02;140575.23;;;-7.02;100.00
33288;BME280;19657;50.452;30.372;2024-01-27T12:12:48;140565.11;;;-7.06;100.00
33288;BME280;19657;50.452;30.372;2024-01-27T12:15:34;140557.70;;;-7.09;100.00
33288;BME280;19657;50.452;30.372;2024-01-27T12:18:20;140545.63;;;-7.14;100.00
33288;BME280;19657;50.452;30.372;2024-01-27T12:21:09;140545.11;;;-7.14;100.00
33288;BME280;19657;50.452;30.372;2024-01-27T12:23:57;140535.72;;;-7.18;100.00
33288;BME280;19657;50.452;30.372;2024-01-27T12:26:45;140531.03;;;-7.21;100.00
33288;BME280;19657;50.452;30.372;2024-01-27T12:29:33;140535.47;;;-7.18;100.00
33288;BME280;19657;50.452;30.372;2024-01-27T12:32:19;140533.47;;;-7.19;100.00
33288;BME280;19657;50.452;30.372;2024-01-27T12:35:06;140531.28;;;-7.21;100.00
33288;BME280;19657;50.452;30.372;2024-01-27T12:37:53;140535.72;;;-7.18;100.00
33288;BME280;19657;50.452;30.372;2024-01-27T12:40:39;140535.47;;;-7.18;100.00
33288;BME280;19657;50.452;30.372;2024-01-27T12:43:26;140532.75;;;-7.20;100.00
33288;BME280;19657;50.452;30.372;2024-01-27T12:46:12;140514.00;;;-7.28;100.00
33288;BME280;19657;50.452;30.372;2024-01-27T12:49:00;140494.48;;;-7.35;100.00
33288;BME280;19657;50.452;30.372;2024-01-27T12:51:47;140490.53;;;-7.37;100.00
33288;BME280;19657;50.452;30.372;2024-01-27T12:54:34;140486.11;;;-7.39;100.00
33288;BME280;19657;50.452;30.372;2024-01-27T12:57:21;140486.59;;;-7.39;100.00
33288;BME280;19657;50.452;30.372;2024-01-27T13:00:07;140486.34;;;-7.39;100.00
33288;BME280;19657;50.452;30.372;2024-01-27T13:02:56;140485.09;;;-7.39;100.00
33288;BME280;19657;50.452;30.372;2024-01-27T13:05:42;140462.41;;;-7.49;100.00
33288;BME280;19657;50.452;30.372;2024-01-27T13:08:28;140452.28;;;-7.53;100.00
33288;BME280;19657;50.452;30.372;2024-01-27T13:11:14;140456.22;;;-7.51;100.00
33288;BME280;19657;50.452;30.372;2024-01-27T13:14:01;140470.80;;;-7.45;100.00
33288;BME280;19657;50.452;30.372;2024-01-27T13:16:47;140475.72;;;-7.43;100.00
33288;BME280;19657;50.452;30.372;2024-01-27T13:19:33;140471.30;;;-7.45;100.00
33288;BME280;19657;50.452;30.372;2024-01-27T13:22:20;140461.17;;;-7.49;100.00
33288;BME280;19657;50.452;30.372;2024-01-27T13:25:10;140459.95;;;-7.50;100.00
33288;BME280;19657;50.452;30.372;2024-01-27T13:27:56;140464.89;;;-7.48;100.00
33288;BME280;19657;50.452;30.372;2024-01-27T13:30:42;140474.75;;;-7.44;100.00
33288;BME280;19657;50.452;30.372;2024-01-27T13:33:28;140491.78;;;-7.37;100.00
33288;BME280;19657;50.452;30.372;2024-01-27T13:36:15;140500.92;;;-7.33;100.00
33288;BME280;19657;50.452;30.372;2024-01-27T13:39:03;140501.66;;;-7.32;100.00
33288;BME280;19657;50.452;30.372;2024-01-27T13:41:50;140496.72;;;-7.35;100.00
33288;BME280;19657;50.452;30.372;2024-01-27T13:44:36;140499.17;;;-7.34;100.00
33288;BME280;19657;50.452;30.372;2024-01-27T13:47:22;140502.16;;;-7.32;100.00
33288;BME280;19657;50.452;30.372;2024-01-27T13:50:09;140501.66;;;-7.32;100.00
33288;BME280;19657;50.452;30.372;2024-01-27T13:52:55;140505.59;;;-7.31;100.00
33288;BME280;19657;50.452;30.372;2024-01-27T13:55:41;140508.84;;;-7.30;100.00
33288;BME280;19657;50.452;30.372;2024-01-27T13:58:30;140513.25;;;-7.28;100.00
33288;BME280;19657;50.452;30.372;2024-01-27T14:01:16;140509.33;;;-7.30;100.00
33288;BME280;19657;50.452;30.372;2024-01-27T14:04:02;140511.53;;;-7.29;100.00
33288;BME280;19657;50.452;30.372;2024-01-27T14:06:49;140507.84;;;-7.30;100.00
33288;BME280;19657;50.452;30.372;2024-01-27T14:09:36;140505.11;;;-7.31;100.00
33288;BME280;19657;50.452;30.372;2024-01-27T14:12:23;140498.94;;;-7.34;100.00